Ellisburg, New York
Current Conditions -  °F | °C
As of 5:56 PM on Monday 24 Nov 2014 (Local Time) from KART Reporting Station
Overcast Overcast  
Wind Chill: 56°   Ceiling: 4900
Heat Index: 56°   Visibility: 10mi
Dew Point: 46°   Wind: 12mph
Humidity: 69%   Direction: 250°WSW
Pressure: 29.39"   Gusts: 26mph
Location:  43.73°N, 76.14°W
Report Text: KART 242256Z AUTO 25010G23KT 10SM BKN049 BKN070 OVC090 13/08 A2939 RMK AO2 PK WND 26036/2206 WSHFT 2153 RAB05E41 SLP951 P0000 T01330078
Loading
Personal Weather Stations






























Interactive Weather Map New forecast layout! Learn more

10-Day Weather Forecast

Advertisements
Track Severe Weather on mobile